sensor_id;sensor_type;location;lat;lon;timestamp;temperature;humidity
68177;DHT22;56478;50.982;7.032;2022-09-09T00:04:23;18.51;77.46
68177;DHT22;56478;50.982;7.032;2022-09-09T00:09:27;18.54;77.32
68177;DHT22;56478;50.982;7.032;2022-09-09T00:12:00;18.52;78.01
68177;DHT22;56478;50.982;7.032;2022-09-09T00:14:39;18.49;77.25
68177;DHT22;56478;50.982;7.032;2022-09-09T00:17:46;18.40;78.12
68177;DHT22;56478;50.982;7.032;2022-09-09T00:20:32;18.33;77.62
68177;DHT22;56478;50.982;7.032;2022-09-09T00:23:17;18.20;78.58
68177;DHT22;56478;50.982;7.032;2022-09-09T00:28:45;18.06;78.52
68177;DHT22;56478;50.982;7.032;2022-09-09T00:31:15;18.00;79.28
68177;DHT22;56478;50.982;7.032;2022-09-09T00:33:43;18.02;78.36
68177;DHT22;56478;50.982;7.032;2022-09-09T00:36:14;18.02;79.09
68177;DHT22;56478;50.982;7.032;2022-09-09T00:38:47;18.04;78.66
68177;DHT22;56478;50.982;7.032;2022-09-09T00:44:32;18.13;78.79
68177;DHT22;56478;50.982;7.032;2022-09-09T00:47:16;18.16;78.05
68177;DHT22;56478;50.982;7.032;2022-09-09T00:49:59;18.17;78.05
68177;DHT22;56478;50.982;7.032;2022-09-09T00:55:25;18.20;78.37
68177;DHT22;56478;50.982;7.032;2022-09-09T00:57:53;18.20;77.65
68177;DHT22;56478;50.982;7.032;2022-09-09T01:00:31;18.23;75.81
68177;DHT22;56478;50.982;7.032;2022-09-09T01:03:04;18.27;76.66
68177;DHT22;56478;50.982;7.032;2022-09-09T01:08:36;18.24;75.72
68177;DHT22;56478;50.982;7.032;2022-09-09T01:11:04;18.17;74.92
68177;DHT22;56478;50.982;7.032;2022-09-09T01:13:32;18.24;74.96
68177;DHT22;56478;50.982;7.032;2022-09-09T01:16:01;18.23;76.31
68177;DHT22;56478;50.982;7.032;2022-09-09T01:18:49;18.11;73.70
68177;DHT22;56478;50.982;7.032;2022-09-09T01:24:09;18.26;73.13
68177;DHT22;56478;50.982;7.032;2022-09-09T01:26:48;18.30;73.52
68177;DHT22;56478;50.982;7.032;2022-09-09T01:29:17;18.18;75.19
68177;DHT22;56478;50.982;7.032;2022-09-09T01:32:02;18.07;76.32
68177;DHT22;56478;50.982;7.032;2022-09-09T01:34:38;18.04;75.87
68177;DHT22;56478;50.982;7.032;2022-09-09T01:37:10;18.02;77.05
68177;DHT22;56478;50.982;7.032;2022-09-09T01:39:40;17.99;76.86
68177;DHT22;56478;50.982;7.032;2022-09-09T01:42:09;17.94;77.07
68177;DHT22;56478;50.982;7.032;2022-09-09T01:44:38;17.90;77.05
68177;DHT22;56478;50.982;7.032;2022-09-09T01:47:04;17.83;76.44
68177;DHT22;56478;50.982;7.032;2022-09-09T01:49:31;17.86;76.64
68177;DHT22;56478;50.982;7.032;2022-09-09T01:51:58;17.90;76.04
68177;DHT22;56478;50.982;7.032;2022-09-09T01:54:28;17.97;76.59
68177;DHT22;56478;50.982;7.032;2022-09-09T02:05:23;18.16;75.21
68177;DHT22;56478;50.982;7.032;2022-09-09T02:07:55;18.20;75.55
68177;DHT22;56478;50.982;7.032;2022-09-09T02:13:45;18.18;76.04
68177;DHT22;56478;50.982;7.032;2022-09-09T02:16:37;18.18;75.87
68177;DHT22;56478;50.982;7.032;2022-09-09T02:21:31;18.10;75.46
68177;DHT22;56478;50.982;7.032;2022-09-09T02:23:59;18.04;75.80
68177;DHT22;56478;50.982;7.032;2022-09-09T02:26:26;18.03;76.97
68177;DHT22;56478;50.982;7.032;2022-09-09T02:28:55;18.00;77.56
68177;DHT22;56478;50.982;7.032;2022-09-09T02:31:24;18.00;76.37
68177;DHT22;56478;50.982;7.032;2022-09-09T02:33:57;18.04;76.71
68177;DHT22;56478;50.982;7.032;2022-09-09T02:36:27;18.06;75.92
68177;DHT22;56478;50.982;7.032;2022-09-09T02:38:55;18.06;76.26
68177;DHT22;56478;50.982;7.032;2022-09-09T02:41:28;18.06;75.07
68177;DHT22;56478;50.982;7.032;2022-09-09T02:43:56;18.09;75.18
68177;DHT22;56478;50.982;7.032;2022-09-09T02:52:33;18.20;74.78
68177;DHT22;56478;50.982;7.032;2022-09-09T02:55:12;18.27;74.75
68177;DHT22;56478;50.982;7.032;2022-09-09T02:57:42;18.30;73.56
68177;DHT22;56478;50.982;7.032;2022-09-09T03:00:11;18.34;73.57
68177;DHT22;56478;50.982;7.032;2022-09-09T03:02:37;18.31;74.04
68177;DHT22;56478;50.982;7.032;2022-09-09T03:05:05;18.21;74.49
68177;DHT22;56478;50.982;7.032;2022-09-09T03:07:31;18.27;73.71
68177;DHT22;56478;50.982;7.032;2022-09-09T03:09:56;18.31;74.22
68177;DHT22;56478;50.982;7.032;2022-09-09T03:12:23;18.26;74.35
68177;DHT22;56478;50.982;7.032;2022-09-09T03:14:49;18.26;74.02
68177;DHT22;56478;50.982;7.032;2022-09-09T03:17:15;18.27;74.09
68177;DHT22;56478;50.982;7.032;2022-09-09T03:19:42;18.27;73.65
68177;DHT22;56478;50.982;7.032;2022-09-09T03:22:09;18.26;74.45
68177;DHT22;56478;50.982;7.032;2022-09-09T03:24:35;18.27;73.52
68177;DHT22;56478;50.982;7.032;2022-09-09T03:27:01;18.26;74.35
68177;DHT22;56478;50.982;7.032;2022-09-09T03:29:27;18.16;75.13
68177;DHT22;56478;50.982;7.032;2022-09-09T03:31:53;18.18;74.67
68177;DHT22;56478;50.982;7.032;2022-09-09T03:34:19;18.18;75.03
68177;DHT22;56478;50.982;7.032;2022-09-09T03:36:44;18.14;74.86
68177;DHT22;56478;50.982;7.032;2022-09-09T03:39:10;18.11;75.52
68177;DHT22;56478;50.982;7.032;2022-09-09T03:41:36;18.13;75.04
68177;DHT22;56478;50.982;7.032;2022-09-09T03:44:02;18.09;75.53
68177;DHT22;56478;50.982;7.032;2022-09-09T03:46:28;18.13;75.39
68177;DHT22;56478;50.982;7.032;2022-09-09T03:48:54;18.16;76.16
68177;DHT22;56478;50.982;7.032;2022-09-09T03:51:20;18.10;76.02
68177;DHT22;56478;50.982;7.032;2022-09-09T03:53:47;18.10;75.57
68177;DHT22;56478;50.982;7.032;2022-09-09T03:56:13;18.16;75.49
68177;DHT22;56478;50.982;7.032;2022-09-09T03:58:39;18.14;75.84
68177;DHT22;56478;50.982;7.032;2022-09-09T04:01:08;18.17;75.75
68177;DHT22;56478;50.982;7.032;2022-09-09T04:03:34;18.16;75.80
68177;DHT22;56478;50.982;7.032;2022-09-09T04:06:01;18.16;75.37
68177;DHT22;56478;50.982;7.032;2022-09-09T04:08:28;18.17;75.25
68177;DHT22;56478;50.982;7.032;2022-09-09T04:10:56;18.18;74.63
68177;DHT22;56478;50.982;7.032;2022-09-09T04:13:24;18.16;75.59
68177;DHT22;56478;50.982;7.032;2022-09-09T04:15:54;18.13;74.85
68177;DHT22;56478;50.982;7.032;2022-09-09T04:18:20;18.13;74.40
68177;DHT22;56478;50.982;7.032;2022-09-09T04:20:47;18.09;74.91
68177;DHT22;56478;50.982;7.032;2022-09-09T04:23:14;18.10;75.62
68177;DHT22;56478;50.982;7.032;2022-09-09T04:25:52;18.10;75.04
68177;DHT22;56478;50.982;7.032;2022-09-09T04:28:20;18.11;75.41
68177;DHT22;56478;50.982;7.032;2022-09-09T04:30:46;18.07;74.78
68177;DHT22;56478;50.982;7.032;2022-09-09T04:33:13;18.11;75.06
68177;DHT22;56478;50.982;7.032;2022-09-09T04:35:39;18.06;75.42
68177;DHT22;56478;50.982;7.032;2022-09-09T04:38:05;18.10;74.71
68177;DHT22;56478;50.982;7.032;2022-09-09T04:40:34;18.10;74.78
68177;DHT22;56478;50.982;7.032;2022-09-09T04:43:02;18.09;75.01
68177;DHT22;56478;50.982;7.032;2022-09-09T04:45:31;18.09;74.47
68177;DHT22;56478;50.982;7.032;2022-09-09T04:47:58;18.11;74.50
68177;DHT22;56478;50.982;7.032;2022-09-09T04:50:24;18.02;74.91
68177;DHT22;56478;50.982;7.032;2022-09-09T04:52:50;18.02;74.87
68177;DHT22;56478;50.982;7.032;2022-09-09T04:55:16;18.02;74.80
68177;DHT22;56478;50.982;7.032;2022-09-09T04:57:42;17.99;75.15
68177;DHT22;56478;50.982;7.032;2022-09-09T05:00:09;17.94;75.11
68177;DHT22;56478;50.982;7.032;2022-09-09T05:02:38;17.93;75.42
68177;DHT22;56478;50.982;7.032;2022-09-09T05:05:05;17.92;75.81
68177;DHT22;56478;50.982;7.032;2022-09-09T05:07:31;17.94;75.32
68177;DHT22;56478;50.982;7.032;2022-09-09T05:09:58;17.94;75.47
68177;DHT22;56478;50.982;7.032;2022-09-09T05:12:25;17.89;75.48
68177;DHT22;56478;50.982;7.032;2022-09-09T05:14:52;17.96;74.91
68177;DHT22;56478;50.982;7.032;2022-09-09T05:17:18;17.97;74.95
68177;DHT22;56478;50.982;7.032;2022-09-09T05:19:44;17.99;74.64
68177;DHT22;56478;50.982;7.032;2022-09-09T05:22:10;17.94;74.67
68177;DHT22;56478;50.982;7.032;2022-09-09T05:24:37;18.04;74.88
68177;DHT22;56478;50.982;7.032;2022-09-09T05:27:04;18.02;76.17
68177;DHT22;56478;50.982;7.032;2022-09-09T05:29:30;17.97;76.85
68177;DHT22;56478;50.982;7.032;2022-09-09T05:31:59;17.99;76.84
68177;DHT22;56478;50.982;7.032;2022-09-09T05:34:25;17.96;76.08
68177;DHT22;56478;50.982;7.032;2022-09-09T05:36:50;17.89;77.68
68177;DHT22;56478;50.982;7.032;2022-09-09T05:39:17;17.85;78.73
68177;DHT22;56478;50.982;7.032;2022-09-09T05:41:44;17.76;78.80
68177;DHT22;56478;50.982;7.032;2022-09-09T05:44:09;17.71;78.69
68177;DHT22;56478;50.982;7.032;2022-09-09T05:46:35;17.62;79.77
68177;DHT22;56478;50.982;7.032;2022-09-09T05:49:02;17.58;80.28
68177;DHT22;56478;50.982;7.032;2022-09-09T05:51:29;17.58;80.56
68177;DHT22;56478;50.982;7.032;2022-09-09T05:53:58;17.52;80.72
68177;DHT22;56478;50.982;7.032;2022-09-09T05:56:26;17.51;81.27
68177;DHT22;56478;50.982;7.032;2022-09-09T05:58:54;17.54;81.00
68177;DHT22;56478;50.982;7.032;2022-09-09T06:01:31;17.61;80.65
68177;DHT22;56478;50.982;7.032;2022-09-09T06:03:58;17.65;80.55
68177;DHT22;56478;50.982;7.032;2022-09-09T06:06:29;17.69;80.57
68177;DHT22;56478;50.982;7.032;2022-09-09T06:08:57;17.62;80.75
68177;DHT22;56478;50.982;7.032;2022-09-09T06:11:25;17.68;80.78
68177;DHT22;56478;50.982;7.032;2022-09-09T06:13:52;17.76;80.44
68177;DHT22;56478;50.982;7.032;2022-09-09T06:16:20;17.89;79.52
68177;DHT22;56478;50.982;7.032;2022-09-09T06:18:49;17.87;77.49
68177;DHT22;56478;50.982;7.032;2022-09-09T06:21:18;17.89;77.67
68177;DHT22;56478;50.982;7.032;2022-09-09T06:23:45;18.03;77.20
68177;DHT22;56478;50.982;7.032;2022-09-09T06:26:15;18.04;77.34
68177;DHT22;56478;50.982;7.032;2022-09-09T06:28:42;18.10;77.88
68177;DHT22;56478;50.982;7.032;2022-09-09T06:31:10;18.18;75.27
68177;DHT22;56478;50.982;7.032;2022-09-09T06:33:38;18.28;76.00
68177;DHT22;56478;50.982;7.032;2022-09-09T06:36:17;18.20;75.85
68177;DHT22;56478;50.982;7.032;2022-09-09T06:38:43;18.26;75.75
68177;DHT22;56478;50.982;7.032;2022-09-09T06:41:12;18.41;74.55
68177;DHT22;56478;50.982;7.032;2022-09-09T06:43:38;18.59;73.62
68177;DHT22;56478;50.982;7.032;2022-09-09T06:48:38;18.62;75.14
68177;DHT22;56478;50.982;7.032;2022-09-09T06:51:11;18.92;73.36
68177;DHT22;56478;50.982;7.032;2022-09-09T06:53:38;19.00;72.97
68177;DHT22;56478;50.982;7.032;2022-09-09T06:58:36;19.03;71.55
68177;DHT22;56478;50.982;7.032;2022-09-09T07:01:06;18.89;72.50
68177;DHT22;56478;50.982;7.032;2022-09-09T07:03:33;18.79;72.91
68177;DHT22;56478;50.982;7.032;2022-09-09T07:05:59;19.04;72.19
68177;DHT22;56478;50.982;7.032;2022-09-09T07:08:26;19.96;69.62
68177;DHT22;56478;50.982;7.032;2022-09-09T07:10:52;20.42;68.12
68177;DHT22;56478;50.982;7.032;2022-09-09T07:13:24;20.38;66.54
68177;DHT22;56478;50.982;7.032;2022-09-09T07:15:51;20.31;66.16
68177;DHT22;56478;50.982;7.032;2022-09-09T07:18:18;20.52;64.53
68177;DHT22;56478;50.982;7.032;2022-09-09T07:20:53;20.27;65.63
68177;DHT22;56478;50.982;7.032;2022-09-09T07:23:20;20.13;65.74
68177;DHT22;56478;50.982;7.032;2022-09-09T07:25:46;20.22;65.80
68177;DHT22;56478;50.982;7.032;2022-09-09T07:28:13;20.21;66.09
68177;DHT22;56478;50.982;7.032;2022-09-09T07:30:39;20.21;64.04
68177;DHT22;56478;50.982;7.032;2022-09-09T07:33:05;20.11;65.56
68177;DHT22;56478;50.982;7.032;2022-09-09T07:35:31;19.94;66.18
68177;DHT22;56478;50.982;7.032;2022-09-09T07:37:57;20.41;65.04
68177;DHT22;56478;50.982;7.032;2022-09-09T07:40:24;21.83;60.69
68177;DHT22;56478;50.982;7.032;2022-09-09T07:42:50;23.10;55.99
68177;DHT22;56478;50.982;7.032;2022-09-09T07:45:16;23.69;53.04
68177;DHT22;56478;50.982;7.032;2022-09-09T07:47:42;25.36;50.48
68177;DHT22;56478;50.982;7.032;2022-09-09T07:50:09;26.01;47.11
68177;DHT22;56478;50.982;7.032;2022-09-09T07:52:35;25.03;50.03
68177;DHT22;56478;50.982;7.032;2022-09-09T07:55:02;24.04;54.11
68177;DHT22;56478;50.982;7.032;2022-09-09T07:57:29;23.62;52.92
68177;DHT22;56478;50.982;7.032;2022-09-09T07:59:57;25.90;48.34
68177;DHT22;56478;50.982;7.032;2022-09-09T08:02:24;26.74;45.77
68177;DHT22;56478;50.982;7.032;2022-09-09T08:04:51;25.11;47.29
68177;DHT22;56478;50.982;7.032;2022-09-09T08:07:17;24.18;51.37
68177;DHT22;56478;50.982;7.032;2022-09-09T08:09:43;24.10;50.91
68177;DHT22;56478;50.982;7.032;2022-09-09T08:12:09;23.58;52.37
68177;DHT22;56478;50.982;7.032;2022-09-09T08:14:38;22.60;53.18
68177;DHT22;56478;50.982;7.032;2022-09-09T08:17:04;22.38;53.14
68177;DHT22;56478;50.982;7.032;2022-09-09T08:19:30;21.93;54.70
68177;DHT22;56478;50.982;7.032;2022-09-09T08:21:58;21.62;54.43
68177;DHT22;56478;50.982;7.032;2022-09-09T08:24:24;21.38;56.71
68177;DHT22;56478;50.982;7.032;2022-09-09T08:26:49;21.39;55.38
68177;DHT22;56478;50.982;7.032;2022-09-09T08:29:15;21.41;55.61
68177;DHT22;56478;50.982;7.032;2022-09-09T08:31:45;21.25;56.96
68177;DHT22;56478;50.982;7.032;2022-09-09T08:34:12;21.01;57.78
68177;DHT22;56478;50.982;7.032;2022-09-09T08:36:41;21.12;56.11
68177;DHT22;56478;50.982;7.032;2022-09-09T08:39:09;21.39;58.28
68177;DHT22;56478;50.982;7.032;2022-09-09T08:53:02;22.84;50.59
68177;DHT22;56478;50.982;7.032;2022-09-09T08:58:21;22.27;52.32
68177;DHT22;56478;50.982;7.032;2022-09-09T09:09:29;21.93;54.05
68177;DHT22;56478;50.982;7.032;2022-09-09T09:12:00;24.69;47.63
68177;DHT22;56478;50.982;7.032;2022-09-09T09:14:29;24.91;44.28
68177;DHT22;56478;50.982;7.032;2022-09-09T09:19:26;25.36;43.03
68177;DHT22;56478;50.982;7.032;2022-09-09T09:24:49;23.96;47.63
68177;DHT22;56478;50.982;7.032;2022-09-09T09:27:24;23.51;47.75
68177;DHT22;56478;50.982;7.032;2022-09-09T09:29:55;23.15;48.06
68177;DHT22;56478;50.982;7.032;2022-09-09T09:32:24;22.67;51.01
68177;DHT22;56478;50.982;7.032;2022-09-09T09:34:57;22.11;50.46
68177;DHT22;56478;50.982;7.032;2022-09-09T09:37:31;21.79;53.64
68177;DHT22;56478;50.982;7.032;2022-09-09T09:40:15;21.58;52.04
68177;DHT22;56478;50.982;7.032;2022-09-09T09:42:54;21.58;51.51
68177;DHT22;56478;50.982;7.032;2022-09-09T09:45:29;21.45;52.93
68177;DHT22;56478;50.982;7.032;2022-09-09T09:48:05;21.43;52.49
68177;DHT22;56478;50.982;7.032;2022-09-09T09:50:33;21.21;54.57
68177;DHT22;56478;50.982;7.032;2022-09-09T09:53:04;21.20;53.22
68177;DHT22;56478;50.982;7.032;2022-09-09T09:55:31;21.17;53.25
68177;DHT22;56478;50.982;7.032;2022-09-09T09:58:06;21.48;52.24
68177;DHT22;56478;50.982;7.032;2022-09-09T10:00:33;21.43;53.88
68177;DHT22;56478;50.982;7.032;2022-09-09T10:03:00;21.31;53.41
68177;DHT22;56478;50.982;7.032;2022-09-09T10:05:31;21.42;53.72
68177;DHT22;56478;50.982;7.032;2022-09-09T10:08:27;21.62;53.45
68177;DHT22;56478;50.982;7.032;2022-09-09T10:16:49;22.20;51.28
68177;DHT22;56478;50.982;7.032;2022-09-09T10:19:36;22.04;50.44
68177;DHT22;56478;50.982;7.032;2022-09-09T10:25:20;21.62;51.66
68177;DHT22;56478;50.982;7.032;2022-09-09T10:27:54;21.87;52.35
68177;DHT22;56478;50.982;7.032;2022-09-09T10:30:40;21.83;51.99
68177;DHT22;56478;50.982;7.032;2022-09-09T10:33:30;21.66;51.92
68177;DHT22;56478;50.982;7.032;2022-09-09T10:41:33;21.28;52.82
68177;DHT22;56478;50.982;7.032;2022-09-09T10:54:08;22.18;50.03
68177;DHT22;56478;50.982;7.032;2022-09-09T10:56:40;22.08;50.88
68177;DHT22;56478;50.982;7.032;2022-09-09T10:59:13;22.25;50.75
68177;DHT22;56478;50.982;7.032;2022-09-09T11:01:43;22.52;50.03
68177;DHT22;56478;50.982;7.032;2022-09-09T11:04:22;22.48;50.39
68177;DHT22;56478;50.982;7.032;2022-09-09T11:06:54;22.49;48.39
68177;DHT22;56478;50.982;7.032;2022-09-09T11:09:26;22.52;48.80
68177;DHT22;56478;50.982;7.032;2022-09-09T11:11:54;22.86;47.94
68177;DHT22;56478;50.982;7.032;2022-09-09T11:19:39;23.70;47.25
68177;DHT22;56478;50.982;7.032;2022-09-09T11:24:49;23.59;46.73
68177;DHT22;56478;50.982;7.032;2022-09-09T11:27:26;23.93;46.66
68177;DHT22;56478;50.982;7.032;2022-09-09T11:38:25;23.06;47.97
68177;DHT22;56478;50.982;7.032;2022-09-09T11:40:59;22.96;47.29
68177;DHT22;56478;50.982;7.032;2022-09-09T11:43:27;22.91;47.50
68177;DHT22;56478;50.982;7.032;2022-09-09T11:45:55;22.67;48.29
68177;DHT22;56478;50.982;7.032;2022-09-09T11:48:34;22.65;48.62
68177;DHT22;56478;50.982;7.032;2022-09-09T11:51:07;22.74;47.71
68177;DHT22;56478;50.982;7.032;2022-09-09T11:53:35;22.65;47.85
68177;DHT22;56478;50.982;7.032;2022-09-09T11:56:30;22.49;48.32
68177;DHT22;56478;50.982;7.032;2022-09-09T11:59:19;22.60;48.50
68177;DHT22;56478;50.982;7.032;2022-09-09T12:01:50;22.70;46.60
68177;DHT22;56478;50.982;7.032;2022-09-09T12:07:24;22.44;48.49
68177;DHT22;56478;50.982;7.032;2022-09-09T12:10:52;22.59;48.18
68177;DHT22;56478;50.982;7.032;2022-09-09T12:13:20;22.55;48.10
68177;DHT22;56478;50.982;7.032;2022-09-09T12:15:56;22.41;49.71
68177;DHT22;56478;50.982;7.032;2022-09-09T12:18:32;22.44;48.14
68177;DHT22;56478;50.982;7.032;2022-09-09T12:26:12;22.08;51.43
68177;DHT22;56478;50.982;7.032;2022-09-09T12:34:49;22.38;47.67
68177;DHT22;56478;50.982;7.032;2022-09-09T12:36:57;22.42;48.80
68177;DHT22;56478;50.982;7.032;2022-09-09T12:39:35;22.39;47.76
68177;DHT22;56478;50.982;7.032;2022-09-09T12:42:02;22.20;48.50
68177;DHT22;56478;50.982;7.032;2022-09-09T12:44:30;22.03;48.22
68177;DHT22;56478;50.982;7.032;2022-09-09T12:47:00;22.00;48.60
68177;DHT22;56478;50.982;7.032;2022-09-09T12:49:38;21.86;49.31
68177;DHT22;56478;50.982;7.032;2022-09-09T12:52:23;21.89;49.37
68177;DHT22;56478;50.982;7.032;2022-09-09T12:54:50;21.70;49.78
68177;DHT22;56478;50.982;7.032;2022-09-09T12:57:17;21.67;49.78
68177;DHT22;56478;50.982;7.032;2022-09-09T12:59:44;21.69;50.15
68177;DHT22;56478;50.982;7.032;2022-09-09T13:02:32;21.72;49.92
68177;DHT22;56478;50.982;7.032;2022-09-09T13:05:09;21.82;50.06
68177;DHT22;56478;50.982;7.032;2022-09-09T13:07:39;22.04;50.05
68177;DHT22;56478;50.982;7.032;2022-09-09T13:10:13;22.46;49.29
68177;DHT22;56478;50.982;7.032;2022-09-09T13:12:40;22.62;48.63
68177;DHT22;56478;50.982;7.032;2022-09-09T13:15:16;22.90;48.05
68177;DHT22;56478;50.982;7.032;2022-09-09T13:17:51;22.83;47.56
68177;DHT22;56478;50.982;7.032;2022-09-09T13:20:19;22.59;48.40
68177;DHT22;56478;50.982;7.032;2022-09-09T13:22:48;22.63;49.66
68177;DHT22;56478;50.982;7.032;2022-09-09T13:25:21;22.31;49.99
68177;DHT22;56478;50.982;7.032;2022-09-09T13:28:01;22.32;50.57
68177;DHT22;56478;50.982;7.032;2022-09-09T13:30:37;22.42;52.40
68177;DHT22;56478;50.982;7.032;2022-09-09T13:35:44;22.77;53.17
68177;DHT22;56478;50.982;7.032;2022-09-09T13:38:14;23.12;52.13
68177;DHT22;56478;50.982;7.032;2022-09-09T13:40:40;23.12;50.38
68177;DHT22;56478;50.982;7.032;2022-09-09T13:43:18;23.22;48.60
68177;DHT22;56478;50.982;7.032;2022-09-09T13:45:56;22.93;48.60
68177;DHT22;56478;50.982;7.032;2022-09-09T13:48:23;22.87;48.97
68177;DHT22;56478;50.982;7.032;2022-09-09T13:50:57;22.98;48.69
68177;DHT22;56478;50.982;7.032;2022-09-09T13:53:23;22.97;49.73
68177;DHT22;56478;50.982;7.032;2022-09-09T13:55:50;22.60;49.52
68177;DHT22;56478;50.982;7.032;2022-09-09T13:58:17;22.97;49.40
68177;DHT22;56478;50.982;7.032;2022-09-09T14:00:46;23.42;48.37
68177;DHT22;56478;50.982;7.032;2022-09-09T14:03:12;23.41;47.46
68177;DHT22;56478;50.982;7.032;2022-09-09T14:05:39;23.35;47.96
68177;DHT22;56478;50.982;7.032;2022-09-09T14:08:06;23.25;48.21
68177;DHT22;56478;50.982;7.032;2022-09-09T14:10:33;23.18;48.82
68177;DHT22;56478;50.982;7.032;2022-09-09T14:13:03;22.93;49.39
68177;DHT22;56478;50.982;7.032;2022-09-09T14:15:28;22.67;49.56
68177;DHT22;56478;50.982;7.032;2022-09-09T14:17:54;22.57;50.32
68177;DHT22;56478;50.982;7.032;2022-09-09T14:20:20;22.38;50.66
68177;DHT22;56478;50.982;7.032;2022-09-09T14:22:46;22.55;50.39
68177;DHT22;56478;50.982;7.032;2022-09-09T14:25:12;22.37;51.01
68177;DHT22;56478;50.982;7.032;2022-09-09T14:27:39;22.44;50.76
68177;DHT22;56478;50.982;7.032;2022-09-09T14:30:06;22.15;52.86
68177;DHT22;56478;50.982;7.032;2022-09-09T14:32:32;22.05;54.13
68177;DHT22;56478;50.982;7.032;2022-09-09T14:34:58;21.92;53.13
68177;DHT22;56478;50.982;7.032;2022-09-09T14:37:24;22.00;54.73
68177;DHT22;56478;50.982;7.032;2022-09-09T14:39:51;21.89;52.94
68177;DHT22;56478;50.982;7.032;2022-09-09T14:42:17;21.66;54.41
68177;DHT22;56478;50.982;7.032;2022-09-09T14:44:42;21.62;62.08
68177;DHT22;56478;50.982;7.032;2022-09-09T14:47:08;21.08;68.88
68177;DHT22;56478;50.982;7.032;2022-09-09T14:49:35;20.75;71.88
68177;DHT22;56478;50.982;7.032;2022-09-09T14:52:02;20.07;72.11
68177;DHT22;56478;50.982;7.032;2022-09-09T14:54:27;19.98;70.05
68177;DHT22;56478;50.982;7.032;2022-09-09T14:56:54;19.69;74.53
68177;DHT22;56478;50.982;7.032;2022-09-09T14:59:20;19.72;74.22
68177;DHT22;56478;50.982;7.032;2022-09-09T15:01:47;19.69;74.08
68177;DHT22;56478;50.982;7.032;2022-09-09T15:04:13;19.69;74.39
68177;DHT22;56478;50.982;7.032;2022-09-09T15:06:42;19.72;74.74
68177;DHT22;56478;50.982;7.032;2022-09-09T15:09:12;19.87;74.47
68177;DHT22;56478;50.982;7.032;2022-09-09T15:11:38;19.98;74.74
68177;DHT22;56478;50.982;7.032;2022-09-09T15:14:05;20.06;75.45
68177;DHT22;56478;50.982;7.032;2022-09-09T15:16:31;20.24;75.11
68177;DHT22;56478;50.982;7.032;2022-09-09T15:18:59;20.25;73.66
68177;DHT22;56478;50.982;7.032;2022-09-09T15:21:29;20.31;72.46
68177;DHT22;56478;50.982;7.032;2022-09-09T15:23:56;20.44;71.99
68177;DHT22;56478;50.982;7.032;2022-09-09T15:26:23;20.42;74.49
68177;DHT22;56478;50.982;7.032;2022-09-09T15:28:49;20.56;74.81
68177;DHT22;56478;50.982;7.032;2022-09-09T15:31:18;20.52;73.54
68177;DHT22;56478;50.982;7.032;2022-09-09T15:33:48;20.56;75.25
68177;DHT22;56478;50.982;7.032;2022-09-09T15:36:25;20.45;73.33
68177;DHT22;56478;50.982;7.032;2022-09-09T15:38:52;20.52;74.31
68177;DHT22;56478;50.982;7.032;2022-09-09T15:41:19;20.41;72.16
68177;DHT22;56478;50.982;7.032;2022-09-09T15:43:47;20.44;74.58
68177;DHT22;56478;50.982;7.032;2022-09-09T15:48:42;20.52;74.56
68177;DHT22;56478;50.982;7.032;2022-09-09T15:51:09;20.44;76.02
68177;DHT22;56478;50.982;7.032;2022-09-09T15:53:39;20.48;76.83
68177;DHT22;56478;50.982;7.032;2022-09-09T15:56:06;20.44;73.44
68177;DHT22;56478;50.982;7.032;2022-09-09T15:58:33;20.28;71.04
68177;DHT22;56478;50.982;7.032;2022-09-09T16:01:03;20.10;73.07
68177;DHT22;56478;50.982;7.032;2022-09-09T16:03:36;20.06;74.31
68177;DHT22;56478;50.982;7.032;2022-09-09T16:06:03;20.00;72.61
68177;DHT22;56478;50.982;7.032;2022-09-09T16:08:39;19.98;73.62
68177;DHT22;56478;50.982;7.032;2022-09-09T16:11:07;19.86;71.92
68177;DHT22;56478;50.982;7.032;2022-09-09T16:13:35;19.62;72.83
68177;DHT22;56478;50.982;7.032;2022-09-09T16:16:05;19.45;72.09
68177;DHT22;56478;50.982;7.032;2022-09-09T16:21:01;19.38;73.37
68177;DHT22;56478;50.982;7.032;2022-09-09T16:23:27;19.39;72.20
68177;DHT22;56478;50.982;7.032;2022-09-09T16:25:54;19.34;71.66
68177;DHT22;56478;50.982;7.032;2022-09-09T16:28:21;19.24;74.95
68177;DHT22;56478;50.982;7.032;2022-09-09T16:30:46;19.21;73.82
68177;DHT22;56478;50.982;7.032;2022-09-09T16:33:12;19.24;72.77
68177;DHT22;56478;50.982;7.032;2022-09-09T16:35:40;19.27;72.22
68177;DHT22;56478;50.982;7.032;2022-09-09T16:38:06;19.27;72.44
68177;DHT22;56478;50.982;7.032;2022-09-09T16:40:36;19.18;72.95
68177;DHT22;56478;50.982;7.032;2022-09-09T16:43:03;19.15;73.82
68177;DHT22;56478;50.982;7.032;2022-09-09T16:45:29;19.10;74.97
68177;DHT22;56478;50.982;7.032;2022-09-09T16:47:55;19.15;74.51
68177;DHT22;56478;50.982;7.032;2022-09-09T16:50:21;19.20;74.65
68177;DHT22;56478;50.982;7.032;2022-09-09T16:52:48;19.14;74.03
68177;DHT22;56478;50.982;7.032;2022-09-09T16:55:14;19.02;74.33
68177;DHT22;56478;50.982;7.032;2022-09-09T16:57:39;18.82;75.33
68177;DHT22;56478;50.982;7.032;2022-09-09T17:00:07;18.51;76.17
68177;DHT22;56478;50.982;7.032;2022-09-09T17:02:34;18.47;76.73
68177;DHT22;56478;50.982;7.032;2022-09-09T17:05:00;18.52;76.94
68177;DHT22;56478;50.982;7.032;2022-09-09T17:07:25;18.54;76.64
68177;DHT22;56478;50.982;7.032;2022-09-09T17:09:52;18.47;76.73
68177;DHT22;56478;50.982;7.032;2022-09-09T17:12:19;18.48;76.44
68177;DHT22;56478;50.982;7.032;2022-09-09T17:14:46;18.43;76.76
68177;DHT22;56478;50.982;7.032;2022-09-09T17:17:11;18.47;78.70
68177;DHT22;56478;50.982;7.032;2022-09-09T17:19:37;18.49;77.24
68177;DHT22;56478;50.982;7.032;2022-09-09T17:22:04;18.52;77.62
68177;DHT22;56478;50.982;7.032;2022-09-09T17:24:30;18.52;78.29
68177;DHT22;56478;50.982;7.032;2022-09-09T17:26:57;18.51;79.57
68177;DHT22;56478;50.982;7.032;2022-09-09T17:29:22;18.58;79.91
68177;DHT22;56478;50.982;7.032;2022-09-09T17:31:48;18.58;80.42
68177;DHT22;56478;50.982;7.032;2022-09-09T17:34:14;18.55;78.35
68177;DHT22;56478;50.982;7.032;2022-09-09T17:36:40;18.54;77.68
68177;DHT22;56478;50.982;7.032;2022-09-09T17:39:06;18.47;78.72
68177;DHT22;56478;50.982;7.032;2022-09-09T17:41:35;18.52;77.73
68177;DHT22;56478;50.982;7.032;2022-09-09T17:44:01;18.51;78.44
68177;DHT22;56478;50.982;7.032;2022-09-09T17:46:33;18.44;78.01
68177;DHT22;56478;50.982;7.032;2022-09-09T17:49:07;18.52;77.54
68177;DHT22;56478;50.982;7.032;2022-09-09T17:51:34;18.47;78.36
68177;DHT22;56478;50.982;7.032;2022-09-09T17:54:07;18.49;80.00
68177;DHT22;56478;50.982;7.032;2022-09-09T17:56:35;18.47;78.84
68177;DHT22;56478;50.982;7.032;2022-09-09T17:59:03;18.45;79.85
68177;DHT22;56478;50.982;7.032;2022-09-09T18:01:31;18.55;78.95